createdAt,value
2018-07-16T00:01:20.677Z,17.01
2018-07-16T00:03:48.880Z,16.99
2018-07-16T00:06:17.808Z,16.90
2018-07-16T00:08:46.293Z,16.86
2018-07-16T00:11:14.555Z,16.85
2018-07-16T00:13:42.765Z,16.88
2018-07-16T00:16:10.944Z,16.90
2018-07-16T00:18:39.131Z,16.81
2018-07-16T00:21:07.333Z,16.85
2018-07-16T00:23:35.529Z,16.86
2018-07-16T00:26:03.719Z,16.83
2018-07-16T00:28:31.967Z,16.78
2018-07-16T00:31:00.142Z,16.74
2018-07-16T00:33:28.335Z,16.73
2018-07-16T00:35:56.527Z,16.72
2018-07-16T00:38:24.710Z,16.73
2018-07-16T00:40:53.172Z,16.72
2018-07-16T00:43:21.374Z,16.70
2018-07-16T00:45:49.548Z,16.67
2018-07-16T00:48:17.734Z,16.65
2018-07-16T00:50:45.938Z,16.67
2018-07-16T00:53:14.120Z,16.68
2018-07-16T00:55:42.321Z,16.72
2018-07-16T00:58:10.518Z,16.71
2018-07-16T01:00:38.689Z,16.65
2018-07-16T01:03:06.873Z,16.66
2018-07-16T01:05:35.084Z,16.69
2018-07-16T01:08:03.317Z,16.67
2018-07-16T01:10:31.505Z,16.61
2018-07-16T01:12:59.689Z,16.55
2018-07-16T01:15:27.902Z,16.52
2018-07-16T01:17:56.097Z,16.56
2018-07-16T01:20:24.290Z,16.52
2018-07-16T01:22:52.470Z,16.54
2018-07-16T01:25:20.678Z,16.54
2018-07-16T01:27:49.836Z,16.54
2018-07-16T01:30:18.023Z,16.52
2018-07-16T01:32:46.551Z,16.45
2018-07-16T01:35:14.748Z,16.43
2018-07-16T01:37:42.982Z,16.42
2018-07-16T01:40:11.178Z,16.36
2018-07-16T01:42:39.373Z,16.37
2018-07-16T01:45:07.584Z,16.38
2018-07-16T01:47:35.757Z,16.37
2018-07-16T01:50:03.974Z,16.21
2018-07-16T01:52:32.173Z,16.22
2018-07-16T01:55:00.361Z,16.22
2018-07-16T01:57:28.613Z,16.21
2018-07-16T01:59:56.801Z,16.10
2018-07-16T02:02:25.027Z,16.11
2018-07-16T02:04:53.225Z,16.09
2018-07-16T02:07:21.413Z,16.05
2018-07-16T02:09:49.620Z,16.08
2018-07-16T02:12:17.809Z,16.15
2018-07-16T02:14:46.249Z,16.19
2018-07-16T02:17:14.432Z,16.13
2018-07-16T02:19:42.635Z,16.01
2018-07-16T02:22:10.811Z,16.09
2018-07-16T02:24:39.241Z,16.12
2018-07-16T02:27:07.443Z,16.07
2018-07-16T02:29:35.616Z,16.02
2018-07-16T02:32:03.807Z,15.88
2018-07-16T02:34:32.013Z,15.73
2018-07-16T02:37:00.207Z,15.71
2018-07-16T02:39:28.409Z,15.69
2018-07-16T02:41:56.603Z,15.68
2018-07-16T02:44:24.824Z,15.66
2018-07-16T02:46:53.035Z,15.66
2018-07-16T02:49:21.236Z,15.63
2018-07-16T02:51:56.107Z,15.51
2018-07-16T02:54:24.297Z,15.51
2018-07-16T02:56:52.773Z,15.54
2018-07-16T02:59:21.022Z,15.47
2018-07-16T03:01:49.240Z,15.41
2018-07-16T03:04:17.427Z,15.31
2018-07-16T03:06:45.687Z,15.24
2018-07-16T03:09:13.882Z,15.34
2018-07-16T03:11:42.062Z,15.62
2018-07-16T03:14:10.270Z,15.78
2018-07-16T03:16:38.468Z,15.92
2018-07-16T03:19:06.768Z,15.97
2018-07-16T03:21:34.954Z,15.99
2018-07-16T03:24:03.198Z,15.96
2018-07-16T03:26:31.392Z,15.94
2018-07-16T03:28:59.602Z,15.96
2018-07-16T03:31:27.811Z,15.98
2018-07-16T03:33:55.995Z,16.01
2018-07-16T03:36:24.226Z,16.02
2018-07-16T03:38:52.441Z,16.06
2018-07-16T03:41:20.641Z,16.11
2018-07-16T03:43:49.093Z,16.13
2018-07-16T03:46:17.881Z,16.15
2018-07-16T03:48:46.048Z,16.25
2018-07-16T03:51:14.226Z,16.31
2018-07-16T03:53:42.431Z,16.30
2018-07-16T03:56:10.613Z,16.27
2018-07-16T03:58:38.798Z,16.26
2018-07-16T04:01:07.390Z,16.23
2018-07-16T04:03:35.596Z,16.18
2018-07-16T04:06:03.782Z,16.12
2018-07-16T04:08:32.051Z,16.18
2018-07-16T04:11:00.234Z,16.21
2018-07-16T04:13:28.430Z,16.20
2018-07-16T04:15:56.634Z,16.21
2018-07-16T04:18:24.818Z,16.21
2018-07-16T04:20:53.026Z,16.30
2018-07-16T04:23:21.221Z,16.33
2018-07-16T04:25:49.421Z,16.38
2018-07-16T04:28:17.601Z,16.33
2018-07-16T04:30:45.808Z,16.31
2018-07-16T04:33:13.982Z,16.29
2018-07-16T04:35:42.536Z,16.38
2018-07-16T04:38:10.689Z,16.49
2018-07-16T04:40:38.889Z,16.69
2018-07-16T04:43:07.111Z,16.83
2018-07-16T04:45:35.609Z,17.00
2018-07-16T04:48:03.783Z,17.27
2018-07-16T04:50:32.019Z,17.31
2018-07-16T04:53:00.210Z,17.41
2018-07-16T04:55:28.401Z,17.91
2018-07-16T04:57:56.890Z,17.94
2018-07-16T05:00:25.087Z,18.46
2018-07-16T05:02:53.286Z,18.69
2018-07-16T05:05:21.490Z,18.78
2018-07-16T05:07:49.944Z,18.82
2018-07-16T05:10:18.124Z,19.24
2018-07-16T05:12:46.316Z,19.44
2018-07-16T05:15:14.508Z,19.26
2018-07-16T05:17:42.749Z,19.08
2018-07-16T05:20:10.933Z,19.48
2018-07-16T05:22:39.490Z,19.62
2018-07-16T05:25:07.743Z,19.31
2018-07-16T05:27:35.921Z,19.60
2018-07-16T05:30:04.156Z,19.34
2018-07-16T05:32:32.583Z,19.32
2018-07-16T05:35:00.633Z,19.32
2018-07-16T05:37:28.823Z,19.47
2018-07-16T05:39:57.348Z,19.89
2018-07-16T05:42:25.669Z,19.92
2018-07-16T05:44:53.857Z,19.85
2018-07-16T05:47:22.058Z,20.28
2018-07-16T05:49:50.262Z,20.53
2018-07-16T05:52:18.460Z,20.32
2018-07-16T05:54:46.663Z,20.24
2018-07-16T05:57:14.857Z,20.36
2018-07-16T05:59:43.048Z,20.58
2018-07-16T06:02:11.521Z,21.18
2018-07-16T06:04:39.727Z,21.14
2018-07-16T06:07:08.282Z,21.57
2018-07-16T06:09:36.490Z,21.58
2018-07-16T06:12:04.692Z,21.35
2018-07-16T06:14:32.974Z,21.96
2018-07-16T06:17:01.110Z,22.51
2018-07-16T06:19:29.294Z,22.29
2018-07-16T06:21:57.465Z,22.84
2018-07-16T06:24:25.875Z,23.29
2018-07-16T06:26:54.030Z,23.27
2018-07-16T06:29:22.206Z,23.32
2018-07-16T06:31:50.381Z,23.43
2018-07-16T06:34:18.549Z,23.59
2018-07-16T06:36:46.722Z,23.69
2018-07-16T06:39:14.935Z,23.61
2018-07-16T06:41:43.093Z,23.06
2018-07-16T06:44:11.273Z,22.71
2018-07-16T06:46:39.481Z,23.13
2018-07-16T06:49:07.658Z,22.90
2018-07-16T06:51:35.934Z,23.62
2018-07-16T06:54:04.166Z,22.82
2018-07-16T06:56:32.359Z,22.03
2018-07-16T06:59:00.558Z,21.64
2018-07-16T07:01:28.733Z,21.99
2018-07-16T07:03:56.986Z,21.93
2018-07-16T07:06:25.458Z,21.84
2018-07-16T07:08:53.951Z,21.86
2018-07-16T07:11:22.257Z,22.25
2018-07-16T07:13:50.477Z,22.00
2018-07-16T07:16:19.084Z,22.34
2018-07-16T07:18:47.338Z,22.23
2018-07-16T07:21:15.670Z,22.55
2018-07-16T07:23:44.378Z,22.78
2018-07-16T07:26:12.651Z,22.63
2018-07-16T07:28:40.914Z,22.41
2018-07-16T07:31:09.082Z,22.35
2018-07-16T07:33:37.326Z,22.54
2018-07-16T07:36:05.551Z,22.70
2018-07-16T07:38:33.771Z,22.79
2018-07-16T07:41:01.954Z,22.96
2018-07-16T07:43:30.242Z,22.72
2018-07-16T07:45:58.502Z,22.48
2018-07-16T07:48:27.344Z,22.78
2018-07-16T07:50:55.542Z,22.40
2018-07-16T07:53:23.781Z,22.08
2018-07-16T07:55:52.010Z,22.09
2018-07-16T07:58:20.198Z,22.51
2018-07-16T08:00:48.465Z,22.70
2018-07-16T08:03:16.805Z,22.73
2018-07-16T08:05:50.305Z,23.03
2018-07-16T08:08:18.493Z,22.85
2018-07-16T08:10:46.657Z,22.92
2018-07-16T08:13:14.883Z,23.10
2018-07-16T08:15:43.057Z,23.18
2018-07-16T08:18:11.341Z,23.46
2018-07-16T08:20:39.607Z,22.55
2018-07-16T08:23:08.023Z,22.86
2018-07-16T08:25:36.245Z,23.33
2018-07-16T08:28:04.508Z,24.03
2018-07-16T08:30:32.689Z,23.41
2018-07-16T08:33:01.114Z,23.98
2018-07-16T08:35:29.678Z,23.86
2018-07-16T08:37:57.933Z,24.00
2018-07-16T08:40:26.112Z,24.28
2018-07-16T08:42:54.457Z,24.14
2018-07-16T08:45:22.622Z,24.46
2018-07-16T08:47:50.790Z,25.51
2018-07-16T08:50:19.020Z,25.21
2018-07-16T08:52:47.312Z,25.29
2018-07-16T08:55:15.485Z,25.74
2018-07-16T08:57:43.752Z,25.66
2018-07-16T09:00:11.946Z,25.76
2018-07-16T09:02:40.133Z,24.89
2018-07-16T09:05:08.333Z,25.09
2018-07-16T09:07:36.494Z,25.20
2018-07-16T09:10:04.981Z,25.18
2018-07-16T09:12:33.754Z,25.19
2018-07-16T09:15:01.921Z,25.73
2018-07-16T09:17:30.101Z,24.60
2018-07-16T09:19:58.286Z,24.64
2018-07-16T09:22:26.493Z,24.60
2018-07-16T09:24:54.870Z,24.66
2018-07-16T09:27:23.059Z,24.70
2018-07-16T09:29:51.328Z,25.36
2018-07-16T09:32:19.515Z,26.47
2018-07-16T09:34:47.746Z,24.52
2018-07-16T09:37:15.963Z,25.10
2018-07-16T09:39:44.230Z,25.28
2018-07-16T09:42:12.406Z,26.48
2018-07-16T09:44:40.582Z,26.44
2018-07-16T09:47:08.749Z,25.78
2018-07-16T09:49:36.930Z,27.04
2018-07-16T09:52:05.130Z,27.68
2018-07-16T09:54:33.364Z,27.72
2018-07-16T09:57:01.569Z,27.55
2018-07-16T09:59:29.798Z,27.93
2018-07-16T10:02:03.316Z,28.72
2018-07-16T10:04:31.497Z,27.47
2018-07-16T10:06:59.685Z,28.23
2018-07-16T10:09:27.948Z,28.31
2018-07-16T10:11:56.233Z,27.15
2018-07-16T10:14:24.513Z,28.42
2018-07-16T10:16:52.773Z,29.87
2018-07-16T10:19:21.044Z,29.60
2018-07-16T10:21:49.254Z,29.35
2018-07-16T10:24:17.501Z,29.69
2018-07-16T10:26:45.670Z,30.38
2018-07-16T10:29:14.244Z,28.99
2018-07-16T10:31:42.521Z,29.65
2018-07-16T10:34:10.800Z,29.69
2018-07-16T10:36:39.073Z,28.97
2018-07-16T10:39:07.855Z,27.85
2018-07-16T10:41:36.273Z,28.78
2018-07-16T10:44:04.455Z,27.63
2018-07-16T10:46:32.647Z,27.50
2018-07-16T10:49:00.895Z,26.81
2018-07-16T10:51:29.150Z,27.37
2018-07-16T10:53:57.338Z,29.04
2018-07-16T10:56:25.592Z,27.11
2018-07-16T10:58:53.930Z,29.97
2018-07-16T11:01:22.125Z,30.85
2018-07-16T11:03:50.326Z,29.58
2018-07-16T11:06:22.954Z,26.87
2018-07-16T11:08:52.422Z,27.08
2018-07-16T11:11:20.689Z,29.49
2018-07-16T11:13:49.124Z,30.38
2018-07-16T11:16:17.490Z,27.23
2018-07-16T11:18:45.834Z,31.06
2018-07-16T11:21:14.028Z,32.90
2018-07-16T11:23:42.240Z,28.16
2018-07-16T11:26:10.462Z,32.89
2018-07-16T11:28:38.735Z,35.23
2018-07-16T11:31:07.001Z,36.86
2018-07-16T11:33:35.273Z,36.33
2018-07-16T11:36:03.467Z,38.09
2018-07-16T11:38:31.725Z,42.06
2018-07-16T11:40:59.901Z,34.16
2018-07-16T11:43:28.498Z,35.10
2018-07-16T11:45:56.683Z,41.14
2018-07-16T11:48:24.927Z,39.30
2018-07-16T11:50:53.114Z,40.30
2018-07-16T11:53:21.298Z,36.42
2018-07-16T11:55:49.462Z,41.06
2018-07-16T11:58:17.638Z,37.11
2018-07-16T12:00:46.126Z,40.33
2018-07-16T12:03:14.298Z,36.79
2018-07-16T12:05:42.470Z,34.94
2018-07-16T12:08:10.726Z,32.53
2018-07-16T12:10:38.894Z,33.90
2018-07-16T12:13:07.193Z,32.96
2018-07-16T12:15:35.365Z,30.54
2018-07-16T12:18:03.677Z,30.36
2018-07-16T12:20:31.888Z,31.56
2018-07-16T12:23:00.075Z,30.22
2018-07-16T12:25:28.261Z,29.57
2018-07-16T12:27:56.461Z,29.03
2018-07-16T12:30:24.633Z,31.39
2018-07-16T12:32:52.928Z,29.72
2018-07-16T12:35:21.169Z,28.10
2018-07-16T12:37:50.073Z,30.46
2018-07-16T12:40:18.327Z,31.06
2018-07-16T12:42:46.829Z,30.93
2018-07-16T12:45:15.104Z,31.98
2018-07-16T12:47:43.285Z,32.89
2018-07-16T12:50:11.481Z,35.35
2018-07-16T12:52:39.697Z,37.31
2018-07-16T12:55:07.971Z,33.69
2018-07-16T12:57:36.161Z,35.71
2018-07-16T13:00:04.382Z,36.11
2018-07-16T13:02:32.646Z,32.78
2018-07-16T13:05:01.454Z,32.17
2018-07-16T13:07:29.978Z,33.15
2018-07-16T13:09:58.252Z,32.82
2018-07-16T13:12:26.454Z,32.58
2018-07-16T13:14:54.700Z,33.99
2018-07-16T13:17:22.878Z,34.64
2018-07-16T13:19:51.061Z,36.42
2018-07-16T13:22:19.253Z,37.36
2018-07-16T13:24:47.567Z,35.31
2018-07-16T13:27:15.801Z,37.82
2018-07-16T13:29:44.158Z,36.84
2018-07-16T13:32:13.033Z,37.34
2018-07-16T13:34:41.546Z,38.37
2018-07-16T13:37:09.788Z,42.58
2018-07-16T13:39:38.283Z,44.84
2018-07-16T13:42:06.515Z,45.13
2018-07-16T13:44:34.723Z,44.96
2018-07-16T13:47:02.889Z,42.58
2018-07-16T13:49:31.180Z,47.15
2018-07-16T13:51:59.392Z,44.85
2018-07-16T13:54:27.560Z,44.31
2018-07-16T13:56:55.840Z,43.08
2018-07-16T13:59:24.082Z,41.27
2018-07-16T14:01:52.281Z,39.61
2018-07-16T14:04:20.554Z,40.66
2018-07-16T14:06:48.801Z,42.83
2018-07-16T14:09:16.981Z,43.67
2018-07-16T14:11:45.150Z,44.59
2018-07-16T14:14:13.426Z,41.87
2018-07-16T14:16:41.589Z,39.05
2018-07-16T14:19:09.850Z,41.88
2018-07-16T14:21:38.012Z,41.24
2018-07-16T14:24:06.221Z,41.92
2018-07-16T14:26:34.829Z,47.31
2018-07-16T14:29:03.082Z,44.50
2018-07-16T14:31:31.326Z,44.97
2018-07-16T14:33:59.880Z,41.74
2018-07-16T14:36:28.126Z,42.46
2018-07-16T14:38:56.320Z,46.58
2018-07-16T14:41:24.514Z,38.77
2018-07-16T14:43:52.769Z,40.57
2018-07-16T14:46:20.959Z,38.68
2018-07-16T14:48:49.285Z,42.13
2018-07-16T14:51:17.597Z,39.93
2018-07-16T14:53:45.885Z,40.04
2018-07-16T14:56:14.171Z,36.63
2018-07-16T14:58:42.421Z,39.20
2018-07-16T15:01:10.677Z,39.25
2018-07-16T15:03:38.979Z,39.80
2018-07-16T15:06:07.285Z,41.04
2018-07-16T15:08:35.514Z,41.05
2018-07-16T15:11:03.699Z,41.21
2018-07-16T15:13:31.864Z,39.50
2018-07-16T15:16:00.097Z,39.55
2018-07-16T15:18:28.508Z,40.15
2018-07-16T15:20:57.173Z,39.09
2018-07-16T15:23:25.314Z,38.90
2018-07-16T15:25:53.774Z,39.84
2018-07-16T15:28:22.053Z,39.58
2018-07-16T15:30:50.667Z,38.03
2018-07-16T15:33:18.894Z,37.41
2018-07-16T15:35:47.121Z,36.83
2018-07-16T15:38:15.354Z,38.70
2018-07-16T15:40:44.229Z,36.50
2018-07-16T15:43:13.759Z,35.09
2018-07-16T15:45:42.021Z,36.68
2018-07-16T15:48:10.350Z,34.99
2018-07-16T15:50:38.551Z,32.39
2018-07-16T15:53:06.850Z,33.10
2018-07-16T15:55:35.132Z,32.96
2018-07-16T15:58:03.394Z,35.54
2018-07-16T16:00:31.671Z,37.16
2018-07-16T16:02:59.971Z,37.39
2018-07-16T16:05:28.166Z,36.58
2018-07-16T16:07:56.345Z,36.20
2018-07-16T16:10:24.729Z,34.96
2018-07-16T16:12:53.277Z,34.48
2018-07-16T16:15:21.573Z,33.75
2018-07-16T16:17:50.267Z,33.82
2018-07-16T16:20:18.475Z,33.98
2018-07-16T16:22:46.796Z,30.91
2018-07-16T16:25:15.320Z,30.26
2018-07-16T16:27:43.498Z,29.28
2018-07-16T16:30:11.741Z,28.92
2018-07-16T16:32:40.046Z,28.33
2018-07-16T16:35:08.163Z,27.98
2018-07-16T16:37:36.427Z,27.24
2018-07-16T16:40:05.025Z,26.76
2018-07-16T16:42:33.293Z,26.43
2018-07-16T16:45:01.481Z,26.75
2018-07-16T16:47:29.751Z,26.47
2018-07-16T16:49:57.944Z,26.45
2018-07-16T16:52:26.132Z,26.30
2018-07-16T16:54:54.329Z,26.20
2018-07-16T16:57:22.519Z,26.28
2018-07-16T16:59:50.831Z,26.20
2018-07-16T17:02:19.082Z,25.89
2018-07-16T17:04:47.318Z,25.98
2018-07-16T17:07:15.490Z,25.97
2018-07-16T17:09:43.672Z,25.94
2018-07-16T17:12:11.854Z,25.64
2018-07-16T17:14:40.027Z,25.88
2018-07-16T17:17:08.380Z,25.54
2018-07-16T17:19:36.860Z,25.62
2018-07-16T17:22:05.122Z,25.53
2018-07-16T17:24:33.382Z,25.38
2018-07-16T17:27:01.558Z,25.33
2018-07-16T17:29:29.806Z,24.98
2018-07-16T17:31:58.014Z,25.16
2018-07-16T17:34:26.200Z,24.99
2018-07-16T17:36:54.417Z,24.85
2018-07-16T17:39:22.915Z,24.81
2018-07-16T17:41:51.236Z,24.92
2018-07-16T17:44:19.517Z,24.66
2018-07-16T17:46:47.790Z,24.60
2018-07-16T17:49:16.044Z,24.36
2018-07-16T17:51:44.281Z,24.09
2018-07-16T17:54:12.581Z,24.04
2018-07-16T17:56:40.745Z,23.88
2018-07-16T17:59:09.017Z,24.04
2018-07-16T18:01:37.345Z,23.92
2018-07-16T18:04:05.673Z,23.93
2018-07-16T18:06:34.591Z,24.06
2018-07-16T18:09:02.861Z,23.85
2018-07-16T18:11:31.108Z,23.64
2018-07-16T18:13:59.268Z,23.59
2018-07-16T18:16:27.455Z,23.39
2018-07-16T18:18:55.634Z,23.29
2018-07-16T18:21:23.936Z,23.20
2018-07-16T18:23:52.246Z,23.13
2018-07-16T18:26:20.460Z,23.02
2018-07-16T18:28:48.626Z,23.02
2018-07-16T18:31:16.834Z,23.04
2018-07-16T18:33:45.190Z,22.90
2018-07-16T18:36:13.374Z,22.71
2018-07-16T18:38:42.926Z,22.75
2018-07-16T18:41:13.460Z,22.67
2018-07-16T18:43:41.937Z,22.60
2018-07-16T18:46:10.209Z,22.53
2018-07-16T18:48:38.393Z,22.47
2018-07-16T18:51:06.606Z,22.43
2018-07-16T18:53:34.885Z,22.44
2018-07-16T18:56:03.361Z,22.37
2018-07-16T18:58:31.606Z,22.31
2018-07-16T19:00:59.799Z,22.20
2018-07-16T19:03:28.036Z,22.29
2018-07-16T19:05:56.249Z,22.17
2018-07-16T19:08:24.663Z,22.15
2018-07-16T19:10:52.913Z,21.91
2018-07-16T19:13:21.304Z,21.81
2018-07-16T19:15:49.569Z,21.90
2018-07-16T19:18:17.868Z,21.81
2018-07-16T19:20:46.058Z,21.81
2018-07-16T19:23:15.577Z,21.66
2018-07-16T19:25:43.768Z,21.67
2018-07-16T19:28:11.994Z,21.67
2018-07-16T19:30:40.654Z,21.56
2018-07-16T19:33:09.205Z,21.43
2018-07-16T19:35:37.760Z,21.31
2018-07-16T19:38:06.121Z,21.40
2018-07-16T19:40:34.409Z,21.16
2018-07-16T19:43:02.633Z,21.26
2018-07-16T19:45:30.967Z,21.18
2018-07-16T19:47:59.162Z,21.07
2018-07-16T19:50:27.471Z,21.02
2018-07-16T19:52:56.246Z,20.99
2018-07-16T19:55:24.474Z,20.86
2018-07-16T19:57:52.768Z,20.97
2018-07-16T20:00:21.049Z,20.89
2018-07-16T20:02:49.204Z,20.84
2018-07-16T20:05:17.406Z,20.85
2018-07-16T20:07:45.630Z,20.76
2018-07-16T20:10:13.812Z,20.63
2018-07-16T20:12:42.822Z,20.58
2018-07-16T20:15:15.604Z,20.58
2018-07-16T20:17:43.894Z,20.38
2018-07-16T20:20:12.129Z,20.27
2018-07-16T20:22:40.313Z,20.32
2018-07-16T20:25:08.900Z,20.30
2018-07-16T20:27:37.167Z,20.25
2018-07-16T20:30:07.481Z,20.25
2018-07-16T20:32:35.700Z,20.27
2018-07-16T20:35:03.970Z,20.15
2018-07-16T20:37:32.205Z,20.15
2018-07-16T20:40:00.401Z,19.95
2018-07-16T20:42:28.724Z,19.81
2018-07-16T20:44:56.914Z,19.75
2018-07-16T20:47:25.178Z,19.24
2018-07-16T20:49:53.458Z,19.13
2018-07-16T20:52:21.659Z,19.10
2018-07-16T20:54:49.968Z,18.88
2018-07-16T20:57:18.210Z,18.97
2018-07-16T20:59:46.726Z,18.96
2018-07-16T21:02:14.922Z,19.02
2018-07-16T21:04:43.258Z,18.86
2018-07-16T21:07:11.773Z,18.73
2018-07-16T21:09:39.957Z,18.77
2018-07-16T21:12:08.117Z,18.67
2018-07-16T21:14:36.325Z,18.69
2018-07-16T21:17:04.897Z,18.44
2018-07-16T21:19:33.109Z,18.59
2018-07-16T21:22:01.349Z,18.60
2018-07-16T21:24:29.567Z,18.56
2018-07-16T21:26:57.826Z,18.54
2018-07-16T21:29:26.969Z,18.30
2018-07-16T21:31:55.823Z,18.07
2018-07-16T21:34:25.056Z,18.23
2018-07-16T21:36:54.653Z,18.17
2018-07-16T21:39:22.854Z,18.16
2018-07-16T21:41:51.174Z,18.10
2018-07-16T21:44:19.418Z,17.94
2018-07-16T21:46:47.634Z,17.89
2018-07-16T21:49:15.842Z,17.89
2018-07-16T21:51:44.006Z,17.71
2018-07-16T21:54:12.296Z,17.70
2018-07-16T21:56:40.467Z,17.52
2018-07-16T21:59:08.686Z,17.45
2018-07-16T22:01:36.878Z,17.48
2018-07-16T22:04:05.343Z,17.53
2018-07-16T22:06:35.507Z,17.50
2018-07-16T22:09:04.833Z,17.55
2018-07-16T22:11:33.048Z,17.43
2018-07-16T22:14:01.285Z,17.51
2018-07-16T22:16:29.491Z,17.50
2018-07-16T22:18:57.765Z,17.41
2018-07-16T22:21:25.973Z,17.33
2018-07-16T22:23:54.261Z,17.36
2018-07-16T22:26:22.489Z,17.49
2018-07-16T22:28:51.081Z,17.47
2018-07-16T22:31:19.429Z,17.36
2018-07-16T22:33:47.626Z,17.36
2018-07-16T22:36:15.801Z,17.41
2018-07-16T22:38:44.055Z,17.33
2018-07-16T22:41:12.232Z,17.33
2018-07-16T22:43:40.395Z,17.24
2018-07-16T22:46:08.564Z,17.22
2018-07-16T22:48:36.750Z,17.22
2018-07-16T22:51:05.482Z,17.29
2018-07-16T22:53:33.805Z,17.30
2018-07-16T22:56:02.069Z,17.18
2018-07-16T22:58:30.978Z,17.38
2018-07-16T23:00:59.159Z,17.37
2018-07-16T23:03:27.326Z,17.30
2018-07-16T23:05:55.722Z,17.32
2018-07-16T23:08:23.898Z,17.35
2018-07-16T23:10:52.068Z,17.14
2018-07-16T23:13:20.281Z,17.21
2018-07-16T23:15:48.457Z,16.89
2018-07-16T23:18:16.717Z,16.85
2018-07-16T23:20:44.973Z,16.71
2018-07-16T23:23:13.181Z,16.84
2018-07-16T23:25:41.363Z,16.66
2018-07-16T23:28:09.541Z,16.54
2018-07-16T23:30:37.789Z,16.64
2018-07-16T23:33:06.330Z,16.52
2018-07-16T23:35:34.530Z,16.39
2018-07-16T23:38:02.729Z,16.44
2018-07-16T23:40:31.045Z,16.48
2018-07-16T23:42:59.220Z,16.43
2018-07-16T23:45:27.512Z,16.28
2018-07-16T23:47:55.746Z,16.15
2018-07-16T23:50:23.950Z,16.35
2018-07-16T23:52:52.102Z,16.42
2018-07-16T23:55:20.783Z,16.41
2018-07-16T23:57:49.026Z,16.28
